sensor_id;sensor_type;location;lat;lon;timestamp;temperature;humidity
28835;DHT22;15969;51.536;11.884;2023-07-20T00:01:24;16.50;99.90
28835;DHT22;15969;51.536;11.884;2023-07-20T00:03:50;16.50;99.90
28835;DHT22;15969;51.536;11.884;2023-07-20T00:06:24;16.50;99.90
28835;DHT22;15969;51.536;11.884;2023-07-20T00:08:51;16.50;99.90
28835;DHT22;15969;51.536;11.884;2023-07-20T00:11:17;16.50;99.90
28835;DHT22;15969;51.536;11.884;2023-07-20T00:13:43;16.50;99.90
28835;DHT22;15969;51.536;11.884;2023-07-20T00:16:08;16.50;99.90
28835;DHT22;15969;51.536;11.884;2023-07-20T00:18:34;16.50;99.90
28835;DHT22;15969;51.536;11.884;2023-07-20T00:21:00;16.50;99.90
28835;DHT22;15969;51.536;11.884;2023-07-20T00:23:27;16.50;99.90
28835;DHT22;15969;51.536;11.884;2023-07-20T00:25:53;16.50;99.90
28835;DHT22;15969;51.536;11.884;2023-07-20T00:28:19;16.50;99.90
28835;DHT22;15969;51.536;11.884;2023-07-20T00:30:45;16.50;99.90
28835;DHT22;15969;51.536;11.884;2023-07-20T00:33:11;16.50;99.90
28835;DHT22;15969;51.536;11.884;2023-07-20T00:35:38;16.40;99.90
28835;DHT22;15969;51.536;11.884;2023-07-20T00:38:04;16.40;99.90
28835;DHT22;15969;51.536;11.884;2023-07-20T00:40:40;16.40;99.90
28835;DHT22;15969;51.536;11.884;2023-07-20T00:43:07;16.40;99.90
28835;DHT22;15969;51.536;11.884;2023-07-20T00:45:34;16.40;99.90
28835;DHT22;15969;51.536;11.884;2023-07-20T00:48:01;16.50;99.90
28835;DHT22;15969;51.536;11.884;2023-07-20T00:50:28;16.50;99.90
28835;DHT22;15969;51.536;11.884;2023-07-20T00:52:58;16.50;99.90
28835;DHT22;15969;51.536;11.884;2023-07-20T00:55:24;16.50;99.90
28835;DHT22;15969;51.536;11.884;2023-07-20T00:57:53;16.50;99.90
28835;DHT22;15969;51.536;11.884;2023-07-20T01:00:19;16.50;99.90
28835;DHT22;15969;51.536;11.884;2023-07-20T01:02:45;16.50;99.90
28835;DHT22;15969;51.536;11.884;2023-07-20T01:05:12;16.50;99.90
28835;DHT22;15969;51.536;11.884;2023-07-20T01:07:46;16.50;99.90
28835;DHT22;15969;51.536;11.884;2023-07-20T01:10:41;16.50;99.90
28835;DHT22;15969;51.536;11.884;2023-07-20T01:13:11;16.60;99.90
28835;DHT22;15969;51.536;11.884;2023-07-20T01:15:39;16.60;99.90
28835;DHT22;15969;51.536;11.884;2023-07-20T01:18:05;16.60;99.90
28835;DHT22;15969;51.536;11.884;2023-07-20T01:20:32;16.60;99.90
28835;DHT22;15969;51.536;11.884;2023-07-20T01:26:08;16.60;99.90
28835;DHT22;15969;51.536;11.884;2023-07-20T01:28:53;16.60;99.90
28835;DHT22;15969;51.536;11.884;2023-07-20T01:31:30;16.60;99.90
28835;DHT22;15969;51.536;11.884;2023-07-20T01:33:58;16.60;99.90
28835;DHT22;15969;51.536;11.884;2023-07-20T01:36:28;16.60;99.90
28835;DHT22;15969;51.536;11.884;2023-07-20T01:38:56;16.60;99.90
28835;DHT22;15969;51.536;11.884;2023-07-20T01:41:22;16.60;99.90
28835;DHT22;15969;51.536;11.884;2023-07-20T01:43:48;16.60;99.90
28835;DHT22;15969;51.536;11.884;2023-07-20T01:46:14;16.60;99.90
28835;DHT22;15969;51.536;11.884;2023-07-20T01:48:39;16.60;99.90
28835;DHT22;15969;51.536;11.884;2023-07-20T01:51:05;16.60;99.90
28835;DHT22;15969;51.536;11.884;2023-07-20T01:53:31;16.60;99.90
28835;DHT22;15969;51.536;11.884;2023-07-20T01:55:57;16.60;99.90
28835;DHT22;15969;51.536;11.884;2023-07-20T01:58:23;16.60;99.90
28835;DHT22;15969;51.536;11.884;2023-07-20T02:00:49;16.60;99.90
28835;DHT22;15969;51.536;11.884;2023-07-20T02:03:15;16.60;99.90
28835;DHT22;15969;51.536;11.884;2023-07-20T02:05:44;16.60;99.90
28835;DHT22;15969;51.536;11.884;2023-07-20T02:08:10;16.60;99.90
28835;DHT22;15969;51.536;11.884;2023-07-20T02:10:36;16.60;99.90
28835;DHT22;15969;51.536;11.884;2023-07-20T02:13:02;16.60;99.90
28835;DHT22;15969;51.536;11.884;2023-07-20T02:15:27;16.60;99.90
28835;DHT22;15969;51.536;11.884;2023-07-20T02:17:54;16.50;99.90
28835;DHT22;15969;51.536;11.884;2023-07-20T02:20:19;16.50;99.90
28835;DHT22;15969;51.536;11.884;2023-07-20T02:22:45;16.60;99.90
28835;DHT22;15969;51.536;11.884;2023-07-20T02:25:11;16.60;99.90
28835;DHT22;15969;51.536;11.884;2023-07-20T02:27:37;16.60;99.90
28835;DHT22;15969;51.536;11.884;2023-07-20T02:30:04;16.50;99.90
28835;DHT22;15969;51.536;11.884;2023-07-20T02:32:31;16.50;99.90
28835;DHT22;15969;51.536;11.884;2023-07-20T02:34:57;16.50;99.90
28835;DHT22;15969;51.536;11.884;2023-07-20T02:37:24;16.60;99.90
28835;DHT22;15969;51.536;11.884;2023-07-20T02:39:49;16.60;99.90
28835;DHT22;15969;51.536;11.884;2023-07-20T02:42:15;16.60;99.90
28835;DHT22;15969;51.536;11.884;2023-07-20T02:44:41;16.60;99.90
28835;DHT22;15969;51.536;11.884;2023-07-20T02:47:07;16.60;99.90
28835;DHT22;15969;51.536;11.884;2023-07-20T02:49:33;16.60;99.90
28835;DHT22;15969;51.536;11.884;2023-07-20T02:51:58;16.60;99.90
28835;DHT22;15969;51.536;11.884;2023-07-20T02:54:24;16.60;99.90
28835;DHT22;15969;51.536;11.884;2023-07-20T02:56:50;16.50;99.90
28835;DHT22;15969;51.536;11.884;2023-07-20T02:59:15;16.50;99.90
28835;DHT22;15969;51.536;11.884;2023-07-20T03:01:41;16.50;99.90
28835;DHT22;15969;51.536;11.884;2023-07-20T03:04:09;16.60;99.90
28835;DHT22;15969;51.536;11.884;2023-07-20T03:06:36;16.50;99.90
28835;DHT22;15969;51.536;11.884;2023-07-20T03:09:02;16.50;99.90
28835;DHT22;15969;51.536;11.884;2023-07-20T03:11:29;16.50;99.90
28835;DHT22;15969;51.536;11.884;2023-07-20T03:13:55;16.50;99.90
28835;DHT22;15969;51.536;11.884;2023-07-20T03:16:23;16.50;99.90
28835;DHT22;15969;51.536;11.884;2023-07-20T03:18:49;16.50;99.90
28835;DHT22;15969;51.536;11.884;2023-07-20T03:21:14;16.50;99.90
28835;DHT22;15969;51.536;11.884;2023-07-20T03:23:40;16.40;99.90
28835;DHT22;15969;51.536;11.884;2023-07-20T03:26:06;16.40;99.90
28835;DHT22;15969;51.536;11.884;2023-07-20T03:28:38;16.40;99.90
28835;DHT22;15969;51.536;11.884;2023-07-20T03:31:04;16.40;99.90
28835;DHT22;15969;51.536;11.884;2023-07-20T03:33:31;16.40;99.90
28835;DHT22;15969;51.536;11.884;2023-07-20T03:35:57;16.40;99.90
28835;DHT22;15969;51.536;11.884;2023-07-20T03:38:25;16.40;99.90
28835;DHT22;15969;51.536;11.884;2023-07-20T03:40:57;16.40;99.90
28835;DHT22;15969;51.536;11.884;2023-07-20T03:43:25;16.40;99.90
28835;DHT22;15969;51.536;11.884;2023-07-20T03:45:52;16.30;99.90
28835;DHT22;15969;51.536;11.884;2023-07-20T03:48:19;16.30;99.90
28835;DHT22;15969;51.536;11.884;2023-07-20T03:50:48;16.30;99.90
28835;DHT22;15969;51.536;11.884;2023-07-20T03:53:15;16.30;99.90
28835;DHT22;15969;51.536;11.884;2023-07-20T03:55:44;16.30;99.90
28835;DHT22;15969;51.536;11.884;2023-07-20T03:58:11;16.30;99.90
28835;DHT22;15969;51.536;11.884;2023-07-20T04:00:36;16.30;99.90
28835;DHT22;15969;51.536;11.884;2023-07-20T04:03:02;16.30;99.90
28835;DHT22;15969;51.536;11.884;2023-07-20T04:05:28;16.40;99.90
28835;DHT22;15969;51.536;11.884;2023-07-20T04:07:54;16.30;99.90
28835;DHT22;15969;51.536;11.884;2023-07-20T04:10:19;16.30;99.90
28835;DHT22;15969;51.536;11.884;2023-07-20T04:12:45;16.30;99.90
28835;DHT22;15969;51.536;11.884;2023-07-20T04:15:12;16.30;99.90
28835;DHT22;15969;51.536;11.884;2023-07-20T04:17:39;16.30;99.90
28835;DHT22;15969;51.536;11.884;2023-07-20T04:20:07;16.30;99.90
28835;DHT22;15969;51.536;11.884;2023-07-20T04:22:33;16.30;99.90
28835;DHT22;15969;51.536;11.884;2023-07-20T04:24:59;16.30;99.90
28835;DHT22;15969;51.536;11.884;2023-07-20T04:27:24;16.30;99.90
28835;DHT22;15969;51.536;11.884;2023-07-20T04:29:51;16.30;99.90
28835;DHT22;15969;51.536;11.884;2023-07-20T04:32:17;16.30;99.90
28835;DHT22;15969;51.536;11.884;2023-07-20T04:34:42;16.30;99.90
28835;DHT22;15969;51.536;11.884;2023-07-20T04:37:08;16.30;99.90
28835;DHT22;15969;51.536;11.884;2023-07-20T04:39:34;16.30;99.90
28835;DHT22;15969;51.536;11.884;2023-07-20T04:42:00;16.30;99.90
28835;DHT22;15969;51.536;11.884;2023-07-20T04:44:25;16.30;99.90
28835;DHT22;15969;51.536;11.884;2023-07-20T04:46:51;16.30;99.90
28835;DHT22;15969;51.536;11.884;2023-07-20T04:49:17;16.30;99.90
28835;DHT22;15969;51.536;11.884;2023-07-20T04:51:42;16.40;99.90
28835;DHT22;15969;51.536;11.884;2023-07-20T04:54:08;16.40;99.90
28835;DHT22;15969;51.536;11.884;2023-07-20T04:56:34;16.40;99.90
28835;DHT22;15969;51.536;11.884;2023-07-20T04:59:00;16.40;99.90
28835;DHT22;15969;51.536;11.884;2023-07-20T05:01:25;16.40;99.90
28835;DHT22;15969;51.536;11.884;2023-07-20T05:03:54;16.50;99.90
28835;DHT22;15969;51.536;11.884;2023-07-20T05:06:20;16.50;99.90
28835;DHT22;15969;51.536;11.884;2023-07-20T05:08:45;16.50;99.90
28835;DHT22;15969;51.536;11.884;2023-07-20T05:11:11;16.60;99.90
28835;DHT22;15969;51.536;11.884;2023-07-20T05:13:37;16.60;99.90
28835;DHT22;15969;51.536;11.884;2023-07-20T05:16:03;16.60;99.90
28835;DHT22;15969;51.536;11.884;2023-07-20T05:18:29;16.60;99.90
28835;DHT22;15969;51.536;11.884;2023-07-20T05:20:54;16.60;99.90
28835;DHT22;15969;51.536;11.884;2023-07-20T05:23:21;16.60;99.90
28835;DHT22;15969;51.536;11.884;2023-07-20T05:25:53;16.60;99.90
28835;DHT22;15969;51.536;11.884;2023-07-20T05:28:23;16.70;99.90
28835;DHT22;15969;51.536;11.884;2023-07-20T05:30:50;16.70;99.90
28835;DHT22;15969;51.536;11.884;2023-07-20T05:33:17;16.70;99.90
28835;DHT22;15969;51.536;11.884;2023-07-20T05:35:44;16.80;99.90
28835;DHT22;15969;51.536;11.884;2023-07-20T05:38:09;16.80;99.90
28835;DHT22;15969;51.536;11.884;2023-07-20T05:40:39;16.80;99.90
28835;DHT22;15969;51.536;11.884;2023-07-20T05:43:06;16.80;99.90
28835;DHT22;15969;51.536;11.884;2023-07-20T05:45:31;16.90;99.90
28835;DHT22;15969;51.536;11.884;2023-07-20T05:47:57;16.80;99.90
28835;DHT22;15969;51.536;11.884;2023-07-20T05:50:23;16.90;99.90
28835;DHT22;15969;51.536;11.884;2023-07-20T05:52:48;16.90;99.90
28835;DHT22;15969;51.536;11.884;2023-07-20T05:55:14;16.90;99.90
28835;DHT22;15969;51.536;11.884;2023-07-20T05:57:40;16.90;99.90
28835;DHT22;15969;51.536;11.884;2023-07-20T06:00:08;17.00;99.90
28835;DHT22;15969;51.536;11.884;2023-07-20T06:02:35;17.00;99.90
28835;DHT22;15969;51.536;11.884;2023-07-20T06:05:00;17.10;99.90
28835;DHT22;15969;51.536;11.884;2023-07-20T06:07:26;17.10;99.90
28835;DHT22;15969;51.536;11.884;2023-07-20T06:09:52;17.20;99.90
28835;DHT22;15969;51.536;11.884;2023-07-20T06:12:18;17.20;99.90
28835;DHT22;15969;51.536;11.884;2023-07-20T06:14:43;17.20;99.90
28835;DHT22;15969;51.536;11.884;2023-07-20T06:17:09;17.20;99.90
28835;DHT22;15969;51.536;11.884;2023-07-20T06:19:35;17.20;99.90
28835;DHT22;15969;51.536;11.884;2023-07-20T06:22:01;17.20;99.90
28835;DHT22;15969;51.536;11.884;2023-07-20T06:24:27;17.30;99.90
28835;DHT22;15969;51.536;11.884;2023-07-20T06:26:53;17.30;99.90
28835;DHT22;15969;51.536;11.884;2023-07-20T06:29:18;17.30;99.90
28835;DHT22;15969;51.536;11.884;2023-07-20T06:31:44;17.30;99.90
28835;DHT22;15969;51.536;11.884;2023-07-20T06:34:10;17.40;99.90
28835;DHT22;15969;51.536;11.884;2023-07-20T06:36:36;17.40;99.90
28835;DHT22;15969;51.536;11.884;2023-07-20T06:39:01;17.50;99.90
28835;DHT22;15969;51.536;11.884;2023-07-20T06:41:27;17.50;99.90
28835;DHT22;15969;51.536;11.884;2023-07-20T06:43:53;17.50;99.90
28835;DHT22;15969;51.536;11.884;2023-07-20T06:46:24;17.50;99.90
28835;DHT22;15969;51.536;11.884;2023-07-20T06:48:51;17.60;99.90
28835;DHT22;15969;51.536;11.884;2023-07-20T06:51:16;17.70;99.90
28835;DHT22;15969;51.536;11.884;2023-07-20T06:53:43;17.70;99.90
28835;DHT22;15969;51.536;11.884;2023-07-20T06:56:09;17.80;99.90
28835;DHT22;15969;51.536;11.884;2023-07-20T06:58:34;18.00;99.90
28835;DHT22;15969;51.536;11.884;2023-07-20T07:01:05;18.00;99.90
28835;DHT22;15969;51.536;11.884;2023-07-20T07:03:32;18.10;99.90
28835;DHT22;15969;51.536;11.884;2023-07-20T07:05:58;18.20;99.90
28835;DHT22;15969;51.536;11.884;2023-07-20T07:08:24;18.20;99.90
28835;DHT22;15969;51.536;11.884;2023-07-20T07:10:50;18.20;99.90
28835;DHT22;15969;51.536;11.884;2023-07-20T07:13:15;18.30;99.90
28835;DHT22;15969;51.536;11.884;2023-07-20T07:15:42;18.50;99.90
28835;DHT22;15969;51.536;11.884;2023-07-20T07:18:08;18.60;99.90
28835;DHT22;15969;51.536;11.884;2023-07-20T07:20:33;18.60;99.90
28835;DHT22;15969;51.536;11.884;2023-07-20T07:22:59;18.70;99.90
28835;DHT22;15969;51.536;11.884;2023-07-20T07:25:26;18.70;99.90
28835;DHT22;15969;51.536;11.884;2023-07-20T07:27:53;18.70;99.90
28835;DHT22;15969;51.536;11.884;2023-07-20T07:30:19;18.80;99.90
28835;DHT22;15969;51.536;11.884;2023-07-20T07:32:45;18.80;99.90
28835;DHT22;15969;51.536;11.884;2023-07-20T07:35:11;18.90;99.90
28835;DHT22;15969;51.536;11.884;2023-07-20T07:37:37;18.90;99.90
28835;DHT22;15969;51.536;11.884;2023-07-20T07:40:04;18.80;99.90
28835;DHT22;15969;51.536;11.884;2023-07-20T07:42:31;18.90;99.90
28835;DHT22;15969;51.536;11.884;2023-07-20T07:44:57;18.90;99.90
28835;DHT22;15969;51.536;11.884;2023-07-20T07:47:22;18.80;99.90
28835;DHT22;15969;51.536;11.884;2023-07-20T07:49:48;18.90;99.90
28835;DHT22;15969;51.536;11.884;2023-07-20T07:52:14;19.00;99.90
28835;DHT22;15969;51.536;11.884;2023-07-20T07:54:40;19.10;99.90
28835;DHT22;15969;51.536;11.884;2023-07-20T07:57:06;19.20;99.90
28835;DHT22;15969;51.536;11.884;2023-07-20T07:59:32;19.30;99.90
28835;DHT22;15969;51.536;11.884;2023-07-20T08:02:03;19.30;99.90
28835;DHT22;15969;51.536;11.884;2023-07-20T08:04:30;19.40;99.90
28835;DHT22;15969;51.536;11.884;2023-07-20T08:06:55;19.50;99.90
28835;DHT22;15969;51.536;11.884;2023-07-20T08:09:21;19.40;99.90
28835;DHT22;15969;51.536;11.884;2023-07-20T08:11:47;19.50;99.90
28835;DHT22;15969;51.536;11.884;2023-07-20T08:14:13;19.50;99.90
28835;DHT22;15969;51.536;11.884;2023-07-20T08:16:39;19.50;99.90
28835;DHT22;15969;51.536;11.884;2023-07-20T08:19:05;19.50;99.90
28835;DHT22;15969;51.536;11.884;2023-07-20T08:21:30;19.40;99.90
28835;DHT22;15969;51.536;11.884;2023-07-20T08:23:56;19.50;99.90
28835;DHT22;15969;51.536;11.884;2023-07-20T08:26:23;19.40;99.90
28835;DHT22;15969;51.536;11.884;2023-07-20T08:28:49;19.40;99.90
28835;DHT22;15969;51.536;11.884;2023-07-20T08:31:15;19.40;99.90
28835;DHT22;15969;51.536;11.884;2023-07-20T08:33:40;19.30;99.90
28835;DHT22;15969;51.536;11.884;2023-07-20T08:36:06;19.30;99.90
28835;DHT22;15969;51.536;11.884;2023-07-20T08:38:33;19.30;99.90
28835;DHT22;15969;51.536;11.884;2023-07-20T08:40:58;19.20;99.90
28835;DHT22;15969;51.536;11.884;2023-07-20T08:43:25;19.20;99.90
28835;DHT22;15969;51.536;11.884;2023-07-20T08:45:54;19.10;99.90
28835;DHT22;15969;51.536;11.884;2023-07-20T08:48:24;19.10;99.90
28835;DHT22;15969;51.536;11.884;2023-07-20T08:50:53;19.00;99.90
28835;DHT22;15969;51.536;11.884;2023-07-20T08:53:20;18.90;99.90
28835;DHT22;15969;51.536;11.884;2023-07-20T08:55:45;18.80;99.90
28835;DHT22;15969;51.536;11.884;2023-07-20T08:58:14;18.60;99.90
28835;DHT22;15969;51.536;11.884;2023-07-20T09:00:41;18.40;99.90
28835;DHT22;15969;51.536;11.884;2023-07-20T09:03:07;18.20;99.90
28835;DHT22;15969;51.536;11.884;2023-07-20T09:05:33;18.00;99.90
28835;DHT22;15969;51.536;11.884;2023-07-20T09:08:01;17.80;99.90
28835;DHT22;15969;51.536;11.884;2023-07-20T09:10:29;17.70;99.90
28835;DHT22;15969;51.536;11.884;2023-07-20T09:12:55;17.60;99.90
28835;DHT22;15969;51.536;11.884;2023-07-20T09:15:22;17.60;99.90
28835;DHT22;15969;51.536;11.884;2023-07-20T09:17:51;17.50;99.90
28835;DHT22;15969;51.536;11.884;2023-07-20T09:20:19;17.50;99.90
28835;DHT22;15969;51.536;11.884;2023-07-20T09:22:46;17.40;99.90
28835;DHT22;15969;51.536;11.884;2023-07-20T09:25:13;17.10;99.90
28835;DHT22;15969;51.536;11.884;2023-07-20T09:27:44;17.00;99.90
28835;DHT22;15969;51.536;11.884;2023-07-20T09:30:13;16.90;99.90
28835;DHT22;15969;51.536;11.884;2023-07-20T09:32:42;16.80;99.90
28835;DHT22;15969;51.536;11.884;2023-07-20T09:35:19;16.80;99.90
28835;DHT22;15969;51.536;11.884;2023-07-20T09:37:58;16.80;99.90
28835;DHT22;15969;51.536;11.884;2023-07-20T09:40:26;16.80;99.90
28835;DHT22;15969;51.536;11.884;2023-07-20T09:42:53;16.80;99.90
28835;DHT22;15969;51.536;11.884;2023-07-20T09:45:57;16.80;99.90
28835;DHT22;15969;51.536;11.884;2023-07-20T09:48:24;17.00;99.90
28835;DHT22;15969;51.536;11.884;2023-07-20T09:50:53;17.00;99.90
28835;DHT22;15969;51.536;11.884;2023-07-20T09:53:19;17.10;99.90
28835;DHT22;15969;51.536;11.884;2023-07-20T09:55:47;17.10;99.90
28835;DHT22;15969;51.536;11.884;2023-07-20T09:58:13;17.20;99.90
28835;DHT22;15969;51.536;11.884;2023-07-20T10:00:41;17.30;99.90
28835;DHT22;15969;51.536;11.884;2023-07-20T10:03:19;17.50;99.90
28835;DHT22;15969;51.536;11.884;2023-07-20T10:06:01;17.60;99.90
28835;DHT22;15969;51.536;11.884;2023-07-20T10:08:30;17.70;99.90
28835;DHT22;15969;51.536;11.884;2023-07-20T10:11:00;17.80;99.90
28835;DHT22;15969;51.536;11.884;2023-07-20T10:13:29;17.90;99.90
28835;DHT22;15969;51.536;11.884;2023-07-20T10:16:03;18.00;99.90
28835;DHT22;15969;51.536;11.884;2023-07-20T10:18:56;18.20;99.90
28835;DHT22;15969;51.536;11.884;2023-07-20T10:21:44;18.30;99.90
28835;DHT22;15969;51.536;11.884;2023-07-20T10:24:13;18.40;99.90
28835;DHT22;15969;51.536;11.884;2023-07-20T10:26:40;18.40;99.90
28835;DHT22;15969;51.536;11.884;2023-07-20T10:29:06;18.40;99.90
28835;DHT22;15969;51.536;11.884;2023-07-20T10:31:32;18.40;99.90
28835;DHT22;15969;51.536;11.884;2023-07-20T10:33:58;18.50;99.90
28835;DHT22;15969;51.536;11.884;2023-07-20T10:36:26;18.40;99.90
28835;DHT22;15969;51.536;11.884;2023-07-20T10:38:54;18.40;99.90
28835;DHT22;15969;51.536;11.884;2023-07-20T10:41:21;18.50;99.90
28835;DHT22;15969;51.536;11.884;2023-07-20T10:43:50;18.60;99.90
28835;DHT22;15969;51.536;11.884;2023-07-20T10:46:34;18.70;99.90
28835;DHT22;15969;51.536;11.884;2023-07-20T10:49:07;18.80;99.90
28835;DHT22;15969;51.536;11.884;2023-07-20T10:51:46;18.90;99.90
28835;DHT22;15969;51.536;11.884;2023-07-20T10:56:42;19.00;99.90
28835;DHT22;15969;51.536;11.884;2023-07-20T11:01:55;19.10;99.90
28835;DHT22;15969;51.536;11.884;2023-07-20T11:04:41;19.30;99.90
28835;DHT22;15969;51.536;11.884;2023-07-20T11:07:09;19.40;99.90
28835;DHT22;15969;51.536;11.884;2023-07-20T11:09:36;19.50;99.90
28835;DHT22;15969;51.536;11.884;2023-07-20T11:12:13;19.60;99.90
28835;DHT22;15969;51.536;11.884;2023-07-20T11:15:00;19.70;99.90
28835;DHT22;15969;51.536;11.884;2023-07-20T11:17:33;19.80;99.90
28835;DHT22;15969;51.536;11.884;2023-07-20T11:20:01;19.80;99.90
28835;DHT22;15969;51.536;11.884;2023-07-20T11:22:30;19.90;99.90
28835;DHT22;15969;51.536;11.884;2023-07-20T11:24:57;20.00;99.90
28835;DHT22;15969;51.536;11.884;2023-07-20T11:27:24;20.20;99.90
28835;DHT22;15969;51.536;11.884;2023-07-20T11:29:49;20.30;99.90
28835;DHT22;15969;51.536;11.884;2023-07-20T11:32:24;20.40;99.90
28835;DHT22;15969;51.536;11.884;2023-07-20T11:34:50;20.50;99.90
28835;DHT22;15969;51.536;11.884;2023-07-20T11:37:17;20.60;99.90
28835;DHT22;15969;51.536;11.884;2023-07-20T11:39:43;20.60;99.90
28835;DHT22;15969;51.536;11.884;2023-07-20T11:42:09;20.60;99.90
28835;DHT22;15969;51.536;11.884;2023-07-20T11:44:35;20.70;99.90
28835;DHT22;15969;51.536;11.884;2023-07-20T11:47:10;20.70;99.90
28835;DHT22;15969;51.536;11.884;2023-07-20T11:49:41;20.60;99.90
28835;DHT22;15969;51.536;11.884;2023-07-20T11:52:12;20.50;99.90
28835;DHT22;15969;51.536;11.884;2023-07-20T11:54:41;20.50;99.90
28835;DHT22;15969;51.536;11.884;2023-07-20T11:57:16;20.30;99.90
28835;DHT22;15969;51.536;11.884;2023-07-20T12:02:28;20.20;99.90
28835;DHT22;15969;51.536;11.884;2023-07-20T12:04:57;20.20;99.90
28835;DHT22;15969;51.536;11.884;2023-07-20T12:07:25;20.20;99.90
28835;DHT22;15969;51.536;11.884;2023-07-20T12:10:09;20.30;99.90
28835;DHT22;15969;51.536;11.884;2023-07-20T12:12:43;20.40;99.90
28835;DHT22;15969;51.536;11.884;2023-07-20T12:15:26;20.40;99.90
28835;DHT22;15969;51.536;11.884;2023-07-20T12:17:53;20.50;99.90
28835;DHT22;15969;51.536;11.884;2023-07-20T12:20:26;20.70;99.90
28835;DHT22;15969;51.536;11.884;2023-07-20T12:23:03;20.80;99.90
28835;DHT22;15969;51.536;11.884;2023-07-20T12:25:41;21.10;99.90
28835;DHT22;15969;51.536;11.884;2023-07-20T12:28:16;21.10;99.90
28835;DHT22;15969;51.536;11.884;2023-07-20T12:30:45;21.20;99.90
28835;DHT22;15969;51.536;11.884;2023-07-20T12:33:12;21.20;99.90
28835;DHT22;15969;51.536;11.884;2023-07-20T12:35:41;21.40;99.90
28835;DHT22;15969;51.536;11.884;2023-07-20T12:38:08;21.50;99.90
28835;DHT22;15969;51.536;11.884;2023-07-20T12:40:34;21.60;99.90
28835;DHT22;15969;51.536;11.884;2023-07-20T12:43:00;21.70;99.90
28835;DHT22;15969;51.536;11.884;2023-07-20T12:45:26;21.80;99.90
28835;DHT22;15969;51.536;11.884;2023-07-20T12:47:52;21.90;99.90
28835;DHT22;15969;51.536;11.884;2023-07-20T12:50:18;22.00;99.90
28835;DHT22;15969;51.536;11.884;2023-07-20T12:52:43;22.10;99.90
28835;DHT22;15969;51.536;11.884;2023-07-20T12:55:09;22.10;99.90
28835;DHT22;15969;51.536;11.884;2023-07-20T12:57:36;22.10;99.90
28835;DHT22;15969;51.536;11.884;2023-07-20T13:00:04;22.10;99.90
28835;DHT22;15969;51.536;11.884;2023-07-20T13:02:33;22.10;99.90
28835;DHT22;15969;51.536;11.884;2023-07-20T13:04:59;22.20;99.90
28835;DHT22;15969;51.536;11.884;2023-07-20T13:07:35;22.20;99.90
28835;DHT22;15969;51.536;11.884;2023-07-20T13:10:03;22.50;99.90
28835;DHT22;15969;51.536;11.884;2023-07-20T13:12:30;22.50;99.90
28835;DHT22;15969;51.536;11.884;2023-07-20T13:14:58;22.80;99.90
28835;DHT22;15969;51.536;11.884;2023-07-20T13:17:28;22.80;99.90
28835;DHT22;15969;51.536;11.884;2023-07-20T13:19:54;23.00;97.90
28835;DHT22;15969;51.536;11.884;2023-07-20T13:22:21;23.20;97.60
28835;DHT22;15969;51.536;11.884;2023-07-20T13:24:46;23.20;96.90
28835;DHT22;15969;51.536;11.884;2023-07-20T13:27:16;23.30;96.40
28835;DHT22;15969;51.536;11.884;2023-07-20T13:29:42;23.30;96.20
28835;DHT22;15969;51.536;11.884;2023-07-20T13:32:09;23.30;96.30
28835;DHT22;15969;51.536;11.884;2023-07-20T13:34:35;23.50;96.90
28835;DHT22;15969;51.536;11.884;2023-07-20T13:37:01;23.50;97.20
28835;DHT22;15969;51.536;11.884;2023-07-20T13:39:27;23.70;95.00
28835;DHT22;15969;51.536;11.884;2023-07-20T13:41:54;23.80;94.40
28835;DHT22;15969;51.536;11.884;2023-07-20T13:44:20;23.90;93.90
28835;DHT22;15969;51.536;11.884;2023-07-20T13:46:50;23.90;90.80
28835;DHT22;15969;51.536;11.884;2023-07-20T13:49:16;23.80;91.10
28835;DHT22;15969;51.536;11.884;2023-07-20T13:51:42;23.70;90.30
28835;DHT22;15969;51.536;11.884;2023-07-20T13:54:08;23.70;91.00
28835;DHT22;15969;51.536;11.884;2023-07-20T13:56:34;23.70;91.50
28835;DHT22;15969;51.536;11.884;2023-07-20T13:59:00;23.70;90.40
28835;DHT22;15969;51.536;11.884;2023-07-20T14:01:26;23.70;91.10
28835;DHT22;15969;51.536;11.884;2023-07-20T14:03:53;23.70;89.90
28835;DHT22;15969;51.536;11.884;2023-07-20T14:06:19;23.80;89.50
28835;DHT22;15969;51.536;11.884;2023-07-20T14:08:45;23.90;89.50
28835;DHT22;15969;51.536;11.884;2023-07-20T14:11:13;24.20;87.30
28835;DHT22;15969;51.536;11.884;2023-07-20T14:13:38;24.50;85.40
28835;DHT22;15969;51.536;11.884;2023-07-20T14:16:05;24.70;82.90
28835;DHT22;15969;51.536;11.884;2023-07-20T14:18:31;24.90;82.20
28835;DHT22;15969;51.536;11.884;2023-07-20T14:20:56;25.10;82.10
28835;DHT22;15969;51.536;11.884;2023-07-20T14:23:22;25.20;81.00
28835;DHT22;15969;51.536;11.884;2023-07-20T14:25:48;25.30;79.70
28835;DHT22;15969;51.536;11.884;2023-07-20T14:28:14;25.40;78.10
28835;DHT22;15969;51.536;11.884;2023-07-20T14:30:41;25.50;77.80
28835;DHT22;15969;51.536;11.884;2023-07-20T14:33:07;25.40;74.00
28835;DHT22;15969;51.536;11.884;2023-07-20T14:35:33;25.30;76.30
28835;DHT22;15969;51.536;11.884;2023-07-20T14:38:00;25.60;77.90
28835;DHT22;15969;51.536;11.884;2023-07-20T14:40:26;25.70;74.30
28835;DHT22;15969;51.536;11.884;2023-07-20T14:42:52;25.80;72.90
28835;DHT22;15969;51.536;11.884;2023-07-20T14:45:18;25.90;74.50
28835;DHT22;15969;51.536;11.884;2023-07-20T14:47:44;26.10;72.60
28835;DHT22;15969;51.536;11.884;2023-07-20T14:50:10;26.30;73.80
28835;DHT22;15969;51.536;11.884;2023-07-20T14:55:03;26.60;69.20
28835;DHT22;15969;51.536;11.884;2023-07-20T14:57:29;26.70;70.40
28835;DHT22;15969;51.536;11.884;2023-07-20T14:59:55;26.80;70.10
28835;DHT22;15969;51.536;11.884;2023-07-20T15:04:51;27.10;67.50
28835;DHT22;15969;51.536;11.884;2023-07-20T15:07:18;27.20;66.90
28835;DHT22;15969;51.536;11.884;2023-07-20T15:09:46;27.30;66.80
28835;DHT22;15969;51.536;11.884;2023-07-20T15:12:12;27.50;67.40
28835;DHT22;15969;51.536;11.884;2023-07-20T15:14:40;27.80;68.50
28835;DHT22;15969;51.536;11.884;2023-07-20T15:17:07;28.00;66.40
28835;DHT22;15969;51.536;11.884;2023-07-20T15:19:33;28.20;64.20
28835;DHT22;15969;51.536;11.884;2023-07-20T15:22:01;28.30;65.10
28835;DHT22;15969;51.536;11.884;2023-07-20T15:24:29;28.20;65.20
28835;DHT22;15969;51.536;11.884;2023-07-20T15:26:55;28.20;65.60
28835;DHT22;15969;51.536;11.884;2023-07-20T15:29:21;28.10;65.10
28835;DHT22;15969;51.536;11.884;2023-07-20T15:31:48;28.20;64.20
28835;DHT22;15969;51.536;11.884;2023-07-20T15:34:14;28.10;64.80